sensor_id;sensor_type;location;lat;lon;timestamp;temperature;humidity
40636;DHT22;26642;55.766;37.828;2022-11-20T00:01:21;8.80;62.30
40636;DHT22;26642;55.766;37.828;2022-11-20T00:03:47;8.80;62.30
40636;DHT22;26642;55.766;37.828;2022-11-20T00:06:15;8.80;62.30
40636;DHT22;26642;55.766;37.828;2022-11-20T00:08:42;8.80;62.30
40636;DHT22;26642;55.766;37.828;2022-11-20T00:11:14;8.80;62.20
40636;DHT22;26642;55.766;37.828;2022-11-20T00:13:40;8.80;62.20
40636;DHT22;26642;55.766;37.828;2022-11-20T00:16:07;8.80;62.30
40636;DHT22;26642;55.766;37.828;2022-11-20T00:18:34;8.80;63.00
40636;DHT22;26642;55.766;37.828;2022-11-20T00:21:10;8.80;62.40
40636;DHT22;26642;55.766;37.828;2022-11-20T00:23:37;8.80;62.40
40636;DHT22;26642;55.766;37.828;2022-11-20T00:26:04;8.80;62.40
40636;DHT22;26642;55.766;37.828;2022-11-20T00:28:31;8.80;62.50
40636;DHT22;26642;55.766;37.828;2022-11-20T00:31:05;8.80;62.20
40636;DHT22;26642;55.766;37.828;2022-11-20T00:33:31;8.80;62.20
40636;DHT22;26642;55.766;37.828;2022-11-20T00:36:08;8.80;62.30
40636;DHT22;26642;55.766;37.828;2022-11-20T00:38:35;8.80;62.20
40636;DHT22;26642;55.766;37.828;2022-11-20T00:41:03;8.80;62.10
40636;DHT22;26642;55.766;37.828;2022-11-20T00:43:29;8.80;62.00
40636;DHT22;26642;55.766;37.828;2022-11-20T00:45:59;8.80;62.00
40636;DHT22;26642;55.766;37.828;2022-11-20T00:48:26;8.80;61.80
40636;DHT22;26642;55.766;37.828;2022-11-20T00:50:53;8.80;61.80
40636;DHT22;26642;55.766;37.828;2022-11-20T00:53:19;8.80;61.50
40636;DHT22;26642;55.766;37.828;2022-11-20T00:56:00;8.80;61.50
40636;DHT22;26642;55.766;37.828;2022-11-20T00:58:33;8.80;61.50
40636;DHT22;26642;55.766;37.828;2022-11-20T01:01:04;8.80;61.60
40636;DHT22;26642;55.766;37.828;2022-11-20T01:03:34;8.80;61.60
40636;DHT22;26642;55.766;37.828;2022-11-20T01:06:06;8.80;61.30
40636;DHT22;26642;55.766;37.828;2022-11-20T01:08:34;8.80;61.30
40636;DHT22;26642;55.766;37.828;2022-11-20T01:11:09;8.80;61.30
40636;DHT22;26642;55.766;37.828;2022-11-20T01:13:36;8.80;61.10
40636;DHT22;26642;55.766;37.828;2022-11-20T01:16:15;8.80;61.00
40636;DHT22;26642;55.766;37.828;2022-11-20T01:18:43;8.80;61.00
40636;DHT22;26642;55.766;37.828;2022-11-20T01:21:15;8.80;61.10
40636;DHT22;26642;55.766;37.828;2022-11-20T01:23:42;8.80;61.20
40636;DHT22;26642;55.766;37.828;2022-11-20T01:26:11;8.80;61.20
40636;DHT22;26642;55.766;37.828;2022-11-20T01:28:38;8.80;61.00
40636;DHT22;26642;55.766;37.828;2022-11-20T01:31:19;8.80;60.90
40636;DHT22;26642;55.766;37.828;2022-11-20T01:33:46;8.80;61.10
40636;DHT22;26642;55.766;37.828;2022-11-20T01:36:14;8.80;61.10
40636;DHT22;26642;55.766;37.828;2022-11-20T01:38:40;8.80;60.90
40636;DHT22;26642;55.766;37.828;2022-11-20T01:41:07;8.80;61.00
40636;DHT22;26642;55.766;37.828;2022-11-20T01:43:34;8.80;61.10
40636;DHT22;26642;55.766;37.828;2022-11-20T01:46:18;8.80;61.20
40636;DHT22;26642;55.766;37.828;2022-11-20T01:48:49;8.80;61.20
40636;DHT22;26642;55.766;37.828;2022-11-20T01:51:25;8.80;61.10
40636;DHT22;26642;55.766;37.828;2022-11-20T01:53:56;8.80;61.10
40636;DHT22;26642;55.766;37.828;2022-11-20T01:56:23;8.80;61.10
40636;DHT22;26642;55.766;37.828;2022-11-20T01:58:57;8.80;61.00
40636;DHT22;26642;55.766;37.828;2022-11-20T02:01:24;8.80;61.00
40636;DHT22;26642;55.766;37.828;2022-11-20T02:03:50;8.80;61.00
40636;DHT22;26642;55.766;37.828;2022-11-20T02:06:39;8.80;61.00
40636;DHT22;26642;55.766;37.828;2022-11-20T02:09:06;8.80;60.90
40636;DHT22;26642;55.766;37.828;2022-11-20T02:11:32;8.80;60.90
40636;DHT22;26642;55.766;37.828;2022-11-20T02:13:58;8.80;60.90
40636;DHT22;26642;55.766;37.828;2022-11-20T02:16:27;8.80;60.90
40636;DHT22;26642;55.766;37.828;2022-11-20T02:18:56;8.80;60.90
40636;DHT22;26642;55.766;37.828;2022-11-20T02:21:33;8.80;60.90
40636;DHT22;26642;55.766;37.828;2022-11-20T02:24:02;8.80;60.80
40636;DHT22;26642;55.766;37.828;2022-11-20T02:26:31;8.80;61.00
40636;DHT22;26642;55.766;37.828;2022-11-20T02:28:58;8.80;60.80
40636;DHT22;26642;55.766;37.828;2022-11-20T02:31:24;8.80;60.80
40636;DHT22;26642;55.766;37.828;2022-11-20T02:33:57;8.80;60.90
40636;DHT22;26642;55.766;37.828;2022-11-20T02:36:26;8.80;60.80
40636;DHT22;26642;55.766;37.828;2022-11-20T02:38:53;8.80;60.80
40636;DHT22;26642;55.766;37.828;2022-11-20T02:41:19;8.80;60.70
40636;DHT22;26642;55.766;37.828;2022-11-20T02:43:45;8.80;60.90
40636;DHT22;26642;55.766;37.828;2022-11-20T02:46:11;8.80;60.90
40636;DHT22;26642;55.766;37.828;2022-11-20T02:48:37;8.80;60.90
40636;DHT22;26642;55.766;37.828;2022-11-20T02:51:03;8.80;60.90
40636;DHT22;26642;55.766;37.828;2022-11-20T02:53:28;8.80;60.90
40636;DHT22;26642;55.766;37.828;2022-11-20T02:55:54;8.80;60.90
40636;DHT22;26642;55.766;37.828;2022-11-20T02:58:20;8.80;61.00
40636;DHT22;26642;55.766;37.828;2022-11-20T03:00:46;8.80;61.00
40636;DHT22;26642;55.766;37.828;2022-11-20T03:03:12;8.80;61.10
40636;DHT22;26642;55.766;37.828;2022-11-20T03:05:38;8.80;61.30
40636;DHT22;26642;55.766;37.828;2022-11-20T03:08:04;8.80;61.20
40636;DHT22;26642;55.766;37.828;2022-11-20T03:10:30;8.80;61.20
40636;DHT22;26642;55.766;37.828;2022-11-20T03:12:56;8.80;61.20
40636;DHT22;26642;55.766;37.828;2022-11-20T03:15:25;8.80;61.10
40636;DHT22;26642;55.766;37.828;2022-11-20T03:17:54;8.80;61.00
40636;DHT22;26642;55.766;37.828;2022-11-20T03:20:21;8.80;61.70
40636;DHT22;26642;55.766;37.828;2022-11-20T03:22:47;8.80;60.90
40636;DHT22;26642;55.766;37.828;2022-11-20T03:25:12;8.80;60.80
40636;DHT22;26642;55.766;37.828;2022-11-20T03:27:38;8.90;60.80
40636;DHT22;26642;55.766;37.828;2022-11-20T03:30:05;8.80;60.80
40636;DHT22;26642;55.766;37.828;2022-11-20T03:32:32;8.80;60.80
40636;DHT22;26642;55.766;37.828;2022-11-20T03:34:58;8.80;60.90
40636;DHT22;26642;55.766;37.828;2022-11-20T03:37:23;8.80;60.90
40636;DHT22;26642;55.766;37.828;2022-11-20T03:39:49;8.80;60.90
40636;DHT22;26642;55.766;37.828;2022-11-20T03:42:15;8.80;60.80
40636;DHT22;26642;55.766;37.828;2022-11-20T03:45:00;8.80;60.90
40636;DHT22;26642;55.766;37.828;2022-11-20T03:47:25;8.80;60.90
40636;DHT22;26642;55.766;37.828;2022-11-20T03:49:51;8.90;61.00
40636;DHT22;26642;55.766;37.828;2022-11-20T03:52:17;8.90;61.00
40636;DHT22;26642;55.766;37.828;2022-11-20T03:54:43;8.80;61.00
40636;DHT22;26642;55.766;37.828;2022-11-20T03:57:09;8.90;61.00
40636;DHT22;26642;55.766;37.828;2022-11-20T03:59:35;8.80;60.90
40636;DHT22;26642;55.766;37.828;2022-11-20T04:02:01;8.80;60.90
40636;DHT22;26642;55.766;37.828;2022-11-20T04:04:26;8.90;60.90
40636;DHT22;26642;55.766;37.828;2022-11-20T04:06:52;8.80;60.90
40636;DHT22;26642;55.766;37.828;2022-11-20T04:09:18;8.90;61.20
40636;DHT22;26642;55.766;37.828;2022-11-20T04:11:44;8.90;61.20
40636;DHT22;26642;55.766;37.828;2022-11-20T04:14:14;8.80;61.10
40636;DHT22;26642;55.766;37.828;2022-11-20T04:16:41;8.80;61.10
40636;DHT22;26642;55.766;37.828;2022-11-20T04:19:15;8.90;61.00
40636;DHT22;26642;55.766;37.828;2022-11-20T04:21:42;8.80;60.80
40636;DHT22;26642;55.766;37.828;2022-11-20T04:24:08;8.90;60.90
40636;DHT22;26642;55.766;37.828;2022-11-20T04:26:36;8.90;60.90
40636;DHT22;26642;55.766;37.828;2022-11-20T04:29:02;8.80;60.90
40636;DHT22;26642;55.766;37.828;2022-11-20T04:31:30;8.90;60.70
40636;DHT22;26642;55.766;37.828;2022-11-20T04:34:00;8.90;60.80
40636;DHT22;26642;55.766;37.828;2022-11-20T04:36:28;8.90;60.70
40636;DHT22;26642;55.766;37.828;2022-11-20T04:38:56;8.90;60.50
40636;DHT22;26642;55.766;37.828;2022-11-20T04:41:24;8.90;60.60
40636;DHT22;26642;55.766;37.828;2022-11-20T04:43:52;8.80;60.40
40636;DHT22;26642;55.766;37.828;2022-11-20T04:46:19;8.90;60.50
40636;DHT22;26642;55.766;37.828;2022-11-20T04:48:46;8.90;60.50
40636;DHT22;26642;55.766;37.828;2022-11-20T04:51:12;8.80;60.40
40636;DHT22;26642;55.766;37.828;2022-11-20T04:53:38;8.90;60.30
40636;DHT22;26642;55.766;37.828;2022-11-20T04:56:06;8.90;60.40
40636;DHT22;26642;55.766;37.828;2022-11-20T04:58:33;8.90;60.30
40636;DHT22;26642;55.766;37.828;2022-11-20T05:01:10;8.90;60.30
40636;DHT22;26642;55.766;37.828;2022-11-20T05:03:36;8.90;60.30
40636;DHT22;26642;55.766;37.828;2022-11-20T05:06:04;8.90;60.10
40636;DHT22;26642;55.766;37.828;2022-11-20T05:08:31;8.90;60.10
40636;DHT22;26642;55.766;37.828;2022-11-20T05:11:07;8.90;60.10
40636;DHT22;26642;55.766;37.828;2022-11-20T05:13:34;8.80;60.00
40636;DHT22;26642;55.766;37.828;2022-11-20T05:16:04;8.80;60.00
40636;DHT22;26642;55.766;37.828;2022-11-20T05:18:30;8.90;60.00
40636;DHT22;26642;55.766;37.828;2022-11-20T05:20:57;8.90;60.00
40636;DHT22;26642;55.766;37.828;2022-11-20T05:23:24;8.90;59.90
40636;DHT22;26642;55.766;37.828;2022-11-20T05:25:54;8.90;59.80
40636;DHT22;26642;55.766;37.828;2022-11-20T05:28:21;8.90;59.80
40636;DHT22;26642;55.766;37.828;2022-11-20T05:30:47;8.80;59.80
40636;DHT22;26642;55.766;37.828;2022-11-20T05:33:13;8.90;59.90
40636;DHT22;26642;55.766;37.828;2022-11-20T05:35:39;8.90;60.00
40636;DHT22;26642;55.766;37.828;2022-11-20T05:38:05;8.90;60.00
40636;DHT22;26642;55.766;37.828;2022-11-20T05:40:31;8.90;60.10
40636;DHT22;26642;55.766;37.828;2022-11-20T05:42:57;8.90;60.00
40636;DHT22;26642;55.766;37.828;2022-11-20T05:45:23;8.90;60.10
40636;DHT22;26642;55.766;37.828;2022-11-20T05:47:49;8.90;60.10
40636;DHT22;26642;55.766;37.828;2022-11-20T05:50:15;8.90;60.10
40636;DHT22;26642;55.766;37.828;2022-11-20T05:52:41;8.80;60.00
40636;DHT22;26642;55.766;37.828;2022-11-20T05:55:07;8.90;60.10
40636;DHT22;26642;55.766;37.828;2022-11-20T05:57:34;8.90;60.00
40636;DHT22;26642;55.766;37.828;2022-11-20T06:00:00;8.90;59.90
40636;DHT22;26642;55.766;37.828;2022-11-20T06:02:26;8.90;59.90
40636;DHT22;26642;55.766;37.828;2022-11-20T06:04:52;8.90;59.90
40636;DHT22;26642;55.766;37.828;2022-11-20T06:07:18;8.90;60.00
40636;DHT22;26642;55.766;37.828;2022-11-20T06:09:44;8.90;60.00
40636;DHT22;26642;55.766;37.828;2022-11-20T06:12:10;8.90;59.90
40636;DHT22;26642;55.766;37.828;2022-11-20T06:14:36;8.90;59.80
40636;DHT22;26642;55.766;37.828;2022-11-20T06:17:02;8.90;59.90
40636;DHT22;26642;55.766;37.828;2022-11-20T06:19:27;8.90;60.00
40636;DHT22;26642;55.766;37.828;2022-11-20T06:21:53;8.90;60.00
40636;DHT22;26642;55.766;37.828;2022-11-20T06:24:19;8.90;60.00
40636;DHT22;26642;55.766;37.828;2022-11-20T06:26:45;8.90;60.10
40636;DHT22;26642;55.766;37.828;2022-11-20T06:29:11;8.90;60.10
40636;DHT22;26642;55.766;37.828;2022-11-20T06:31:37;8.90;60.10
40636;DHT22;26642;55.766;37.828;2022-11-20T06:34:07;8.90;60.00
40636;DHT22;26642;55.766;37.828;2022-11-20T06:36:33;8.90;60.00
40636;DHT22;26642;55.766;37.828;2022-11-20T06:39:00;9.00;60.00
40636;DHT22;26642;55.766;37.828;2022-11-20T06:41:26;8.90;59.80
40636;DHT22;26642;55.766;37.828;2022-11-20T06:43:51;9.00;59.80
40636;DHT22;26642;55.766;37.828;2022-11-20T06:46:19;9.00;59.80
40636;DHT22;26642;55.766;37.828;2022-11-20T06:48:46;8.90;59.70
40636;DHT22;26642;55.766;37.828;2022-11-20T06:51:12;9.00;59.80
40636;DHT22;26642;55.766;37.828;2022-11-20T06:53:39;9.00;60.00
40636;DHT22;26642;55.766;37.828;2022-11-20T06:56:06;9.00;59.90
40636;DHT22;26642;55.766;37.828;2022-11-20T06:58:33;9.00;60.10
40636;DHT22;26642;55.766;37.828;2022-11-20T07:01:00;9.00;60.30
40636;DHT22;26642;55.766;37.828;2022-11-20T07:03:27;9.00;60.20
40636;DHT22;26642;55.766;37.828;2022-11-20T07:05:56;9.00;60.30
40636;DHT22;26642;55.766;37.828;2022-11-20T07:08:23;9.00;60.30
40636;DHT22;26642;55.766;37.828;2022-11-20T07:10:50;9.00;60.00
40636;DHT22;26642;55.766;37.828;2022-11-20T07:13:16;9.00;60.00
40636;DHT22;26642;55.766;37.828;2022-11-20T07:15:41;9.00;60.10
40636;DHT22;26642;55.766;37.828;2022-11-20T07:18:07;9.00;60.00
40636;DHT22;26642;55.766;37.828;2022-11-20T07:20:33;9.00;60.10
40636;DHT22;26642;55.766;37.828;2022-11-20T07:22:59;9.00;60.10
40636;DHT22;26642;55.766;37.828;2022-11-20T07:25:27;9.00;60.10
40636;DHT22;26642;55.766;37.828;2022-11-20T07:27:57;9.00;60.20
40636;DHT22;26642;55.766;37.828;2022-11-20T07:30:24;9.00;60.30
40636;DHT22;26642;55.766;37.828;2022-11-20T07:32:54;9.00;60.10
40636;DHT22;26642;55.766;37.828;2022-11-20T07:35:21;9.10;60.50
40636;DHT22;26642;55.766;37.828;2022-11-20T07:37:47;9.00;60.40
40636;DHT22;26642;55.766;37.828;2022-11-20T07:40:15;9.10;60.80
40636;DHT22;26642;55.766;37.828;2022-11-20T07:42:51;9.10;61.10
40636;DHT22;26642;55.766;37.828;2022-11-20T07:45:19;9.10;61.60
40636;DHT22;26642;55.766;37.828;2022-11-20T07:47:45;9.10;62.00
40636;DHT22;26642;55.766;37.828;2022-11-20T07:50:12;9.10;61.90
40636;DHT22;26642;55.766;37.828;2022-11-20T07:52:38;9.10;62.20
40636;DHT22;26642;55.766;37.828;2022-11-20T07:55:04;9.10;62.00
40636;DHT22;26642;55.766;37.828;2022-11-20T07:57:30;9.10;62.30
40636;DHT22;26642;55.766;37.828;2022-11-20T07:59:56;9.10;62.10
40636;DHT22;26642;55.766;37.828;2022-11-20T08:02:22;9.10;62.20
40636;DHT22;26642;55.766;37.828;2022-11-20T08:04:48;9.10;62.00
40636;DHT22;26642;55.766;37.828;2022-11-20T08:07:15;9.10;62.00
40636;DHT22;26642;55.766;37.828;2022-11-20T08:09:40;9.20;61.90
40636;DHT22;26642;55.766;37.828;2022-11-20T08:12:06;9.10;62.00
40636;DHT22;26642;55.766;37.828;2022-11-20T08:14:51;9.20;61.80
40636;DHT22;26642;55.766;37.828;2022-11-20T08:17:17;9.20;61.80
40636;DHT22;26642;55.766;37.828;2022-11-20T08:19:42;9.20;61.80
40636;DHT22;26642;55.766;37.828;2022-11-20T08:22:08;9.20;62.00
40636;DHT22;26642;55.766;37.828;2022-11-20T08:24:34;9.20;61.90
40636;DHT22;26642;55.766;37.828;2022-11-20T08:27:00;9.20;62.20
40636;DHT22;26642;55.766;37.828;2022-11-20T08:29:26;9.20;62.30
40636;DHT22;26642;55.766;37.828;2022-11-20T08:31:52;9.20;62.00
40636;DHT22;26642;55.766;37.828;2022-11-20T08:34:18;9.20;62.30
40636;DHT22;26642;55.766;37.828;2022-11-20T08:36:44;9.20;62.10
40636;DHT22;26642;55.766;37.828;2022-11-20T08:39:12;9.30;62.20
40636;DHT22;26642;55.766;37.828;2022-11-20T08:41:38;9.30;62.50
40636;DHT22;26642;55.766;37.828;2022-11-20T08:44:05;9.30;62.40
40636;DHT22;26642;55.766;37.828;2022-11-20T08:46:41;9.20;62.60
40636;DHT22;26642;55.766;37.828;2022-11-20T08:49:09;9.30;62.60
40636;DHT22;26642;55.766;37.828;2022-11-20T08:51:36;9.30;62.60
40636;DHT22;26642;55.766;37.828;2022-11-20T08:54:02;9.30;62.90
40636;DHT22;26642;55.766;37.828;2022-11-20T08:56:29;9.30;62.80
40636;DHT22;26642;55.766;37.828;2022-11-20T08:58:55;9.30;62.80
40636;DHT22;26642;55.766;37.828;2022-11-20T09:01:22;9.30;62.80
40636;DHT22;26642;55.766;37.828;2022-11-20T09:03:49;9.30;62.90
40636;DHT22;26642;55.766;37.828;2022-11-20T09:06:15;9.30;63.00
40636;DHT22;26642;55.766;37.828;2022-11-20T09:08:42;9.30;62.80
40636;DHT22;26642;55.766;37.828;2022-11-20T09:11:08;9.30;62.70
40636;DHT22;26642;55.766;37.828;2022-11-20T09:13:36;9.30;62.70
40636;DHT22;26642;55.766;37.828;2022-11-20T09:16:07;9.30;62.50
40636;DHT22;26642;55.766;37.828;2022-11-20T09:18:35;9.30;62.50
40636;DHT22;26642;55.766;37.828;2022-11-20T09:21:11;9.30;62.40
40636;DHT22;26642;55.766;37.828;2022-11-20T09:23:38;9.40;62.90
40636;DHT22;26642;55.766;37.828;2022-11-20T09:26:10;9.40;63.30
40636;DHT22;26642;55.766;37.828;2022-11-20T09:28:36;9.40;63.90
40636;DHT22;26642;55.766;37.828;2022-11-20T09:31:09;9.40;64.50
40636;DHT22;26642;55.766;37.828;2022-11-20T09:33:36;9.40;64.70
40636;DHT22;26642;55.766;37.828;2022-11-20T09:36:01;9.40;64.90
40636;DHT22;26642;55.766;37.828;2022-11-20T09:38:27;9.40;65.00
40636;DHT22;26642;55.766;37.828;2022-11-20T09:41:03;9.40;64.80
40636;DHT22;26642;55.766;37.828;2022-11-20T09:46:30;9.40;65.20
40636;DHT22;26642;55.766;37.828;2022-11-20T09:52:28;9.50;67.30
40636;DHT22;26642;55.766;37.828;2022-11-20T09:55:01;9.40;67.60
40636;DHT22;26642;55.766;37.828;2022-11-20T09:57:37;9.50;68.10
40636;DHT22;26642;55.766;37.828;2022-11-20T10:00:08;9.50;68.10
40636;DHT22;26642;55.766;37.828;2022-11-20T10:05:46;9.50;68.10
40636;DHT22;26642;55.766;37.828;2022-11-20T10:08:21;9.50;68.00
40636;DHT22;26642;55.766;37.828;2022-11-20T10:11:05;9.50;68.40
40636;DHT22;26642;55.766;37.828;2022-11-20T10:16:24;9.50;68.10
40636;DHT22;26642;55.766;37.828;2022-11-20T10:29:41;9.60;68.00
40636;DHT22;26642;55.766;37.828;2022-11-20T10:32:16;9.60;67.80
40636;DHT22;26642;55.766;37.828;2022-11-20T10:34:52;9.60;67.60
40636;DHT22;26642;55.766;37.828;2022-11-20T10:37:25;9.60;67.30
40636;DHT22;26642;55.766;37.828;2022-11-20T10:43:01;9.50;67.10
40636;DHT22;26642;55.766;37.828;2022-11-20T10:45:38;9.60;67.00
40636;DHT22;26642;55.766;37.828;2022-11-20T10:50:36;9.60;66.80
40636;DHT22;26642;55.766;37.828;2022-11-20T10:55:58;9.60;66.70
40636;DHT22;26642;55.766;37.828;2022-11-20T11:01:13;9.60;66.70
40636;DHT22;26642;55.766;37.828;2022-11-20T11:03:40;9.60;67.10
40636;DHT22;26642;55.766;37.828;2022-11-20T11:08:56;9.60;67.30
40636;DHT22;26642;55.766;37.828;2022-11-20T11:11:27;9.70;67.40
40636;DHT22;26642;55.766;37.828;2022-11-20T11:14:08;9.60;67.20
40636;DHT22;26642;55.766;37.828;2022-11-20T11:16:34;9.60;67.00
40636;DHT22;26642;55.766;37.828;2022-11-20T11:19:13;9.70;68.20
40636;DHT22;26642;55.766;37.828;2022-11-20T11:21:53;9.70;68.40
40636;DHT22;26642;55.766;37.828;2022-11-20T11:24:27;9.70;68.90
40636;DHT22;26642;55.766;37.828;2022-11-20T11:27:02;9.80;67.60
40636;DHT22;26642;55.766;37.828;2022-11-20T11:29:33;9.70;67.00
40636;DHT22;26642;55.766;37.828;2022-11-20T11:32:18;9.70;66.60
40636;DHT22;26642;55.766;37.828;2022-11-20T11:34:44;9.70;66.10
40636;DHT22;26642;55.766;37.828;2022-11-20T11:37:17;9.70;65.60
40636;DHT22;26642;55.766;37.828;2022-11-20T11:39:44;9.60;65.00
40636;DHT22;26642;55.766;37.828;2022-11-20T11:42:16;9.70;65.00
40636;DHT22;26642;55.766;37.828;2022-11-20T11:44:47;9.60;64.70
40636;DHT22;26642;55.766;37.828;2022-11-20T11:53:05;9.60;64.60
40636;DHT22;26642;55.766;37.828;2022-11-20T11:55:54;9.60;65.00
40636;DHT22;26642;55.766;37.828;2022-11-20T12:01:43;9.60;65.10
40636;DHT22;26642;55.766;37.828;2022-11-20T12:06:36;9.60;65.20
40636;DHT22;26642;55.766;37.828;2022-11-20T12:09:08;9.60;65.30
40636;DHT22;26642;55.766;37.828;2022-11-20T12:11:54;9.60;65.40
40636;DHT22;26642;55.766;37.828;2022-11-20T12:14:34;9.60;65.60
40636;DHT22;26642;55.766;37.828;2022-11-20T12:17:02;9.60;65.90
40636;DHT22;26642;55.766;37.828;2022-11-20T12:19:31;9.60;66.20
40636;DHT22;26642;55.766;37.828;2022-11-20T12:25:17;9.60;66.60
40636;DHT22;26642;55.766;37.828;2022-11-20T12:30:59;9.60;67.50
40636;DHT22;26642;55.766;37.828;2022-11-20T12:33:54;9.60;67.60
40636;DHT22;26642;55.766;37.828;2022-11-20T12:36:49;9.60;67.80
40636;DHT22;26642;55.766;37.828;2022-11-20T12:39:29;9.60;68.10
40636;DHT22;26642;55.766;37.828;2022-11-20T12:50:55;9.60;68.20
40636;DHT22;26642;55.766;37.828;2022-11-20T12:59:02;9.60;68.20
40636;DHT22;26642;55.766;37.828;2022-11-20T13:01:42;9.60;68.20
40636;DHT22;26642;55.766;37.828;2022-11-20T13:06:45;9.60;68.20
40636;DHT22;26642;55.766;37.828;2022-11-20T13:09:14;9.60;68.40
40636;DHT22;26642;55.766;37.828;2022-11-20T13:11:53;9.60;68.50
40636;DHT22;26642;55.766;37.828;2022-11-20T13:14:57;9.60;68.30
40636;DHT22;26642;55.766;37.828;2022-11-20T13:20:17;9.60;68.00
40636;DHT22;26642;55.766;37.828;2022-11-20T13:25:21;9.60;68.20
40636;DHT22;26642;55.766;37.828;2022-11-20T13:27:48;9.60;68.20
40636;DHT22;26642;55.766;37.828;2022-11-20T13:30:17;9.60;68.10
40636;DHT22;26642;55.766;37.828;2022-11-20T13:32:54;9.60;67.70
40636;DHT22;26642;55.766;37.828;2022-11-20T13:35:32;9.60;68.90
40636;DHT22;26642;55.766;37.828;2022-11-20T13:38:12;9.60;69.50
40636;DHT22;26642;55.766;37.828;2022-11-20T13:40:52;9.70;70.20
40636;DHT22;26642;55.766;37.828;2022-11-20T13:43:38;9.70;70.40
40636;DHT22;26642;55.766;37.828;2022-11-20T13:46:07;9.70;71.70
40636;DHT22;26642;55.766;37.828;2022-11-20T13:48:41;9.70;72.20
40636;DHT22;26642;55.766;37.828;2022-11-20T13:59:56;9.70;72.20
40636;DHT22;26642;55.766;37.828;2022-11-20T14:02:25;9.80;72.30
40636;DHT22;26642;55.766;37.828;2022-11-20T14:04:54;9.70;72.20
40636;DHT22;26642;55.766;37.828;2022-11-20T14:07:58;9.80;72.30
40636;DHT22;26642;55.766;37.828;2022-11-20T14:10:26;9.80;72.50
40636;DHT22;26642;55.766;37.828;2022-11-20T14:12:52;9.80;72.90
40636;DHT22;26642;55.766;37.828;2022-11-20T14:15:30;9.80;73.40
40636;DHT22;26642;55.766;37.828;2022-11-20T14:17:57;9.80;73.30
40636;DHT22;26642;55.766;37.828;2022-11-20T14:20:27;9.80;73.60
40636;DHT22;26642;55.766;37.828;2022-11-20T14:22:54;9.80;73.60
40636;DHT22;26642;55.766;37.828;2022-11-20T14:25:23;9.80;73.50
40636;DHT22;26642;55.766;37.828;2022-11-20T14:27:58;9.80;73.60
40636;DHT22;26642;55.766;37.828;2022-11-20T14:30:26;9.80;73.80
40636;DHT22;26642;55.766;37.828;2022-11-20T14:32:55;9.80;74.30
40636;DHT22;26642;55.766;37.828;2022-11-20T14:35:27;9.80;74.40
40636;DHT22;26642;55.766;37.828;2022-11-20T14:37:54;9.80;74.40
40636;DHT22;26642;55.766;37.828;2022-11-20T14:40:35;9.80;74.40
40636;DHT22;26642;55.766;37.828;2022-11-20T14:43:02;9.80;74.30
40636;DHT22;26642;55.766;37.828;2022-11-20T14:45:41;9.80;74.40
40636;DHT22;26642;55.766;37.828;2022-11-20T14:48:09;9.80;73.90
40636;DHT22;26642;55.766;37.828;2022-11-20T14:50:38;9.80;73.60
40636;DHT22;26642;55.766;37.828;2022-11-20T14:53:04;9.80;73.10
40636;DHT22;26642;55.766;37.828;2022-11-20T14:55:38;9.80;73.30
40636;DHT22;26642;55.766;37.828;2022-11-20T14:58:21;9.80;73.20
40636;DHT22;26642;55.766;37.828;2022-11-20T15:00:58;9.80;73.60
40636;DHT22;26642;55.766;37.828;2022-11-20T15:03:38;9.80;74.10
40636;DHT22;26642;55.766;37.828;2022-11-20T15:06:06;9.80;74.60
40636;DHT22;26642;55.766;37.828;2022-11-20T15:08:33;9.80;75.10
40636;DHT22;26642;55.766;37.828;2022-11-20T15:10:58;9.90;75.60
40636;DHT22;26642;55.766;37.828;2022-11-20T15:13:29;9.90;75.90
40636;DHT22;26642;55.766;37.828;2022-11-20T15:15:57;9.80;76.30
40636;DHT22;26642;55.766;37.828;2022-11-20T15:20:54;9.90;76.80
40636;DHT22;26642;55.766;37.828;2022-11-20T15:23:20;9.90;77.10
40636;DHT22;26642;55.766;37.828;2022-11-20T15:25:47;9.90;77.80
40636;DHT22;26642;55.766;37.828;2022-11-20T15:28:35;9.90;78.00
40636;DHT22;26642;55.766;37.828;2022-11-20T15:31:03;9.90;78.30
40636;DHT22;26642;55.766;37.828;2022-11-20T15:33:30;9.90;78.90
40636;DHT22;26642;55.766;37.828;2022-11-20T15:35:57;9.90;79.10
40636;DHT22;26642;55.766;37.828;2022-11-20T15:38:23;9.90;79.20
40636;DHT22;26642;55.766;37.828;2022-11-20T15:40:49;9.90;79.30
40636;DHT22;26642;55.766;37.828;2022-11-20T15:43:15;9.90;79.40
40636;DHT22;26642;55.766;37.828;2022-11-20T15:45:54;9.90;78.90
40636;DHT22;26642;55.766;37.828;2022-11-20T15:53:39;9.90;78.70
40636;DHT22;26642;55.766;37.828;2022-11-20T15:56:08;9.90;78.60
40636;DHT22;26642;55.766;37.828;2022-11-20T15:58:36;10.00;78.30
40636;DHT22;26642;55.766;37.828;2022-11-20T16:01:02;10.00;77.90
40636;DHT22;26642;55.766;37.828;2022-11-20T16:03:28;10.00;77.50
40636;DHT22;26642;55.766;37.828;2022-11-20T16:05:54;9.90;76.90
40636;DHT22;26642;55.766;37.828;2022-11-20T16:08:20;9.90;76.70
40636;DHT22;26642;55.766;37.828;2022-11-20T16:10:46;10.00;76.30
40636;DHT22;26642;55.766;37.828;2022-11-20T16:13:17;9.90;76.10
40636;DHT22;26642;55.766;37.828;2022-11-20T16:16:07;9.90;75.80
40636;DHT22;26642;55.766;37.828;2022-11-20T16:18:35;10.00;75.80
40636;DHT22;26642;55.766;37.828;2022-11-20T16:21:02;10.00;75.70
40636;DHT22;26642;55.766;37.828;2022-11-20T16:23:28;10.00;75.70
40636;DHT22;26642;55.766;37.828;2022-11-20T16:25:54;10.00;75.60
40636;DHT22;26642;55.766;37.828;2022-11-20T16:28:20;10.00;75.30
40636;DHT22;26642;55.766;37.828;2022-11-20T16:30:46;10.00;75.50
40636;DHT22;26642;55.766;37.828;2022-11-20T16:33:14;10.00;75.10
40636;DHT22;26642;55.766;37.828;2022-11-20T16:35:40;9.90;75.20
40636;DHT22;26642;55.766;37.828;2022-11-20T16:38:07;10.00;75.00
40636;DHT22;26642;55.766;37.828;2022-11-20T16:40:33;10.00;75.00
40636;DHT22;26642;55.766;37.828;2022-11-20T16:43:10;10.00;75.10
40636;DHT22;26642;55.766;37.828;2022-11-20T16:45:41;10.00;74.90
40636;DHT22;26642;55.766;37.828;2022-11-20T16:48:11;10.00;74.60
40636;DHT22;26642;55.766;37.828;2022-11-20T16:50:45;10.00;74.60
40636;DHT22;26642;55.766;37.828;2022-11-20T16:53:12;10.00;74.60
40636;DHT22;26642;55.766;37.828;2022-11-20T16:55:37;10.00;74.70
40636;DHT22;26642;55.766;37.828;2022-11-20T16:58:03;10.00;74.80
40636;DHT22;26642;55.766;37.828;2022-11-20T17:00:29;10.00;75.00
40636;DHT22;26642;55.766;37.828;2022-11-20T17:02:55;10.00;74.90
40636;DHT22;26642;55.766;37.828;2022-11-20T17:05:21;10.00;75.00
40636;DHT22;26642;55.766;37.828;2022-11-20T17:07:47;10.00;75.90
40636;DHT22;26642;55.766;37.828;2022-11-20T17:10:13;10.00;75.20
40636;DHT22;26642;55.766;37.828;2022-11-20T17:12:39;10.00;75.00
40636;DHT22;26642;55.766;37.828;2022-11-20T17:15:05;10.00;75.00
40636;DHT22;26642;55.766;37.828;2022-11-20T17:17:31;10.00;74.70